sensor_id;sensor_type;location;lat;lon;timestamp;P1;durP1;ratioP1;P2;durP2;ratioP2
27957;SDS011;15295;42.658;23.374;2023-11-21T00:01:11;12.32;;;6.30;;
27957;SDS011;15295;42.658;23.374;2023-11-21T00:03:37;13.43;;;6.70;;
27957;SDS011;15295;42.658;23.374;2023-11-21T00:06:14;13.23;;;5.97;;
27957;SDS011;15295;42.658;23.374;2023-11-21T00:08:39;7.55;;;3.80;;
27957;SDS011;15295;42.658;23.374;2023-11-21T00:11:05;8.63;;;3.70;;
27957;SDS011;15295;42.658;23.374;2023-11-21T00:13:31;7.05;;;3.75;;
27957;SDS011;15295;42.658;23.374;2023-11-21T00:15:57;7.30;;;3.25;;
27957;SDS011;15295;42.658;23.374;2023-11-21T00:18:23;4.88;;;2.90;;
27957;SDS011;15295;42.658;23.374;2023-11-21T00:20:51;6.88;;;3.67;;
27957;SDS011;15295;42.658;23.374;2023-11-21T00:23:35;6.40;;;2.90;;
27957;SDS011;15295;42.658;23.374;2023-11-21T00:26:11;5.15;;;3.00;;
27957;SDS011;15295;42.658;23.374;2023-11-21T00:28:37;5.80;;;3.00;;
27957;SDS011;15295;42.658;23.374;2023-11-21T00:31:02;5.78;;;2.90;;
27957;SDS011;15295;42.658;23.374;2023-11-21T00:33:29;8.13;;;3.20;;
27957;SDS011;15295;42.658;23.374;2023-11-21T00:35:56;7.35;;;3.47;;
27957;SDS011;15295;42.658;23.374;2023-11-21T00:38:22;7.30;;;3.45;;
27957;SDS011;15295;42.658;23.374;2023-11-21T00:40:47;7.90;;;3.30;;
27957;SDS011;15295;42.658;23.374;2023-11-21T00:43:13;6.45;;;3.70;;
27957;SDS011;15295;42.658;23.374;2023-11-21T00:45:39;17.63;;;5.15;;
27957;SDS011;15295;42.658;23.374;2023-11-21T00:48:05;9.68;;;6.00;;
27957;SDS011;15295;42.658;23.374;2023-11-21T00:50:30;12.52;;;5.97;;
27957;SDS011;15295;42.658;23.374;2023-11-21T00:52:56;13.18;;;5.90;;
27957;SDS011;15295;42.658;23.374;2023-11-21T00:55:22;11.18;;;4.88;;
27957;SDS011;15295;42.658;23.374;2023-11-21T00:57:48;10.88;;;4.82;;
27957;SDS011;15295;42.658;23.374;2023-11-21T01:00:13;15.52;;;5.90;;
27957;SDS011;15295;42.658;23.374;2023-11-21T01:18:04;16.35;;;7.63;;
27957;SDS011;15295;42.658;23.374;2023-11-21T01:20:30;16.88;;;8.40;;
27957;SDS011;15295;42.658;23.374;2023-11-21T01:22:55;16.60;;;8.65;;
27957;SDS011;15295;42.658;23.374;2023-11-21T01:25:28;14.60;;;7.90;;
27957;SDS011;15295;42.658;23.374;2023-11-21T01:27:53;19.13;;;8.65;;
27957;SDS011;15295;42.658;23.374;2023-11-21T01:30:18;19.13;;;8.90;;
27957;SDS011;15295;42.658;23.374;2023-11-21T01:32:44;16.60;;;8.07;;
27957;SDS011;15295;42.658;23.374;2023-11-21T01:35:10;17.23;;;8.82;;
27957;SDS011;15295;42.658;23.374;2023-11-21T01:37:36;15.15;;;8.55;;
27957;SDS011;15295;42.658;23.374;2023-11-21T01:40:02;20.02;;;9.77;;
27957;SDS011;15295;42.658;23.374;2023-11-21T01:42:35;20.17;;;8.82;;
27957;SDS011;15295;42.658;23.374;2023-11-21T01:45:10;19.38;;;9.77;;
27957;SDS011;15295;42.658;23.374;2023-11-21T01:47:57;21.00;;;8.73;;
27957;SDS011;15295;42.658;23.374;2023-11-21T01:50:39;19.50;;;9.60;;
27957;SDS011;15295;42.658;23.374;2023-11-21T01:53:05;19.15;;;9.30;;
27957;SDS011;15295;42.658;23.374;2023-11-21T01:55:31;32.83;;;14.60;;
27957;SDS011;15295;42.658;23.374;2023-11-21T01:57:58;41.80;;;17.95;;
27957;SDS011;15295;42.658;23.374;2023-11-21T02:00:25;46.30;;;20.00;;
27957;SDS011;15295;42.658;23.374;2023-11-21T02:02:53;56.40;;;23.95;;
27957;SDS011;15295;42.658;23.374;2023-11-21T02:05:19;41.15;;;21.17;;
27957;SDS011;15295;42.658;23.374;2023-11-21T02:07:48;51.55;;;21.30;;
27957;SDS011;15295;42.658;23.374;2023-11-21T02:10:14;35.55;;;17.27;;
27957;SDS011;15295;42.658;23.374;2023-11-21T02:12:40;45.83;;;20.73;;
27957;SDS011;15295;42.658;23.374;2023-11-21T02:15:21;43.25;;;20.90;;
27957;SDS011;15295;42.658;23.374;2023-11-21T02:20:23;60.60;;;29.55;;
27957;SDS011;15295;42.658;23.374;2023-11-21T02:22:53;60.63;;;29.70;;
27957;SDS011;15295;42.658;23.374;2023-11-21T02:25:24;64.25;;;30.35;;
27957;SDS011;15295;42.658;23.374;2023-11-21T02:28:04;65.05;;;33.10;;
27957;SDS011;15295;42.658;23.374;2023-11-21T02:30:31;66.25;;;31.60;;
27957;SDS011;15295;42.658;23.374;2023-11-21T02:32:57;64.75;;;30.25;;
27957;SDS011;15295;42.658;23.374;2023-11-21T02:35:23;66.75;;;30.48;;
27957;SDS011;15295;42.658;23.374;2023-11-21T02:38:02;63.60;;;31.55;;
27957;SDS011;15295;42.658;23.374;2023-11-21T02:40:46;72.20;;;33.72;;
27957;SDS011;15295;42.658;23.374;2023-11-21T02:46:37;67.72;;;33.25;;
27957;SDS011;15295;42.658;23.374;2023-11-21T02:49:04;60.95;;;31.45;;
27957;SDS011;15295;42.658;23.374;2023-11-21T02:51:40;66.82;;;32.35;;
27957;SDS011;15295;42.658;23.374;2023-11-21T02:54:47;57.10;;;27.63;;
27957;SDS011;15295;42.658;23.374;2023-11-21T02:57:14;52.58;;;25.58;;
27957;SDS011;15295;42.658;23.374;2023-11-21T02:59:40;46.83;;;23.52;;
27957;SDS011;15295;42.658;23.374;2023-11-21T03:02:05;42.72;;;22.52;;
27957;SDS011;15295;42.658;23.374;2023-11-21T03:04:34;52.28;;;26.70;;
27957;SDS011;15295;42.658;23.374;2023-11-21T03:07:02;49.40;;;21.90;;
27957;SDS011;15295;42.658;23.374;2023-11-21T03:09:27;57.55;;;25.80;;
27957;SDS011;15295;42.658;23.374;2023-11-21T03:11:53;50.65;;;25.63;;
27957;SDS011;15295;42.658;23.374;2023-11-21T03:14:19;54.40;;;25.63;;
27957;SDS011;15295;42.658;23.374;2023-11-21T03:16:45;58.55;;;27.73;;
27957;SDS011;15295;42.658;23.374;2023-11-21T03:19:10;52.33;;;26.95;;
27957;SDS011;15295;42.658;23.374;2023-11-21T03:21:37;54.35;;;27.52;;
27957;SDS011;15295;42.658;23.374;2023-11-21T03:24:03;57.75;;;26.75;;
27957;SDS011;15295;42.658;23.374;2023-11-21T03:26:31;53.53;;;26.88;;
27957;SDS011;15295;42.658;23.374;2023-11-21T03:28:58;57.08;;;28.23;;
27957;SDS011;15295;42.658;23.374;2023-11-21T03:31:23;57.88;;;27.98;;
27957;SDS011;15295;42.658;23.374;2023-11-21T03:33:49;49.42;;;25.55;;
27957;SDS011;15295;42.658;23.374;2023-11-21T03:36:14;46.35;;;23.45;;
27957;SDS011;15295;42.658;23.374;2023-11-21T03:38:40;50.80;;;24.77;;
27957;SDS011;15295;42.658;23.374;2023-11-21T03:41:06;48.47;;;22.27;;
27957;SDS011;15295;42.658;23.374;2023-11-21T03:43:35;47.97;;;21.75;;
27957;SDS011;15295;42.658;23.374;2023-11-21T03:46:01;46.75;;;24.13;;
27957;SDS011;15295;42.658;23.374;2023-11-21T03:48:27;43.83;;;21.13;;
27957;SDS011;15295;42.658;23.374;2023-11-21T03:50:54;45.55;;;22.90;;
27957;SDS011;15295;42.658;23.374;2023-11-21T03:53:19;47.45;;;25.20;;
27957;SDS011;15295;42.658;23.374;2023-11-21T03:55:47;52.80;;;27.15;;
27957;SDS011;15295;42.658;23.374;2023-11-21T03:58:22;53.53;;;26.27;;
27957;SDS011;15295;42.658;23.374;2023-11-21T04:00:48;46.10;;;24.33;;
27957;SDS011;15295;42.658;23.374;2023-11-21T04:03:14;54.53;;;22.35;;
27957;SDS011;15295;42.658;23.374;2023-11-21T04:05:40;45.20;;;21.52;;
27957;SDS011;15295;42.658;23.374;2023-11-21T04:08:07;42.65;;;21.75;;
27957;SDS011;15295;42.658;23.374;2023-11-21T04:10:32;27.05;;;13.73;;
27957;SDS011;15295;42.658;23.374;2023-11-21T04:12:58;22.15;;;11.50;;
27957;SDS011;15295;42.658;23.374;2023-11-21T04:15:25;28.90;;;14.23;;
27957;SDS011;15295;42.658;23.374;2023-11-21T04:17:51;23.17;;;13.30;;
27957;SDS011;15295;42.658;23.374;2023-11-21T04:20:17;26.88;;;13.52;;
27957;SDS011;15295;42.658;23.374;2023-11-21T04:22:43;24.00;;;12.88;;
27957;SDS011;15295;42.658;23.374;2023-11-21T04:25:13;23.08;;;12.43;;
27957;SDS011;15295;42.658;23.374;2023-11-21T04:27:40;22.73;;;11.00;;
27957;SDS011;15295;42.658;23.374;2023-11-21T04:30:08;21.75;;;10.90;;
27957;SDS011;15295;42.658;23.374;2023-11-21T04:32:35;23.15;;;11.40;;
27957;SDS011;15295;42.658;23.374;2023-11-21T04:35:00;26.73;;;12.05;;
27957;SDS011;15295;42.658;23.374;2023-11-21T04:37:26;23.23;;;11.18;;
27957;SDS011;15295;42.658;23.374;2023-11-21T04:39:51;24.73;;;10.15;;
27957;SDS011;15295;42.658;23.374;2023-11-21T04:42:17;22.95;;;10.75;;
27957;SDS011;15295;42.658;23.374;2023-11-21T04:44:42;19.85;;;10.07;;
27957;SDS011;15295;42.658;23.374;2023-11-21T04:47:11;21.45;;;10.63;;
27957;SDS011;15295;42.658;23.374;2023-11-21T04:49:37;20.13;;;9.13;;
27957;SDS011;15295;42.658;23.374;2023-11-21T04:52:02;22.40;;;9.98;;
27957;SDS011;15295;42.658;23.374;2023-11-21T04:54:30;17.13;;;9.95;;
27957;SDS011;15295;42.658;23.374;2023-11-21T04:57:26;18.52;;;9.57;;
27957;SDS011;15295;42.658;23.374;2023-11-21T04:59:53;16.92;;;9.98;;
27957;SDS011;15295;42.658;23.374;2023-11-21T05:02:19;21.55;;;10.13;;
27957;SDS011;15295;42.658;23.374;2023-11-21T05:04:47;23.73;;;9.25;;
27957;SDS011;15295;42.658;23.374;2023-11-21T05:07:13;20.25;;;9.30;;
27957;SDS011;15295;42.658;23.374;2023-11-21T05:09:42;21.88;;;11.23;;
27957;SDS011;15295;42.658;23.374;2023-11-21T05:12:11;21.75;;;10.68;;
27957;SDS011;15295;42.658;23.374;2023-11-21T05:14:37;21.95;;;11.10;;
27957;SDS011;15295;42.658;23.374;2023-11-21T05:17:04;21.98;;;10.95;;
27957;SDS011;15295;42.658;23.374;2023-11-21T05:19:31;21.90;;;10.73;;
27957;SDS011;15295;42.658;23.374;2023-11-21T05:21:58;20.67;;;10.55;;
27957;SDS011;15295;42.658;23.374;2023-11-21T05:24:37;18.42;;;10.18;;
27957;SDS011;15295;42.658;23.374;2023-11-21T05:30:30;23.88;;;11.68;;
27957;SDS011;15295;42.658;23.374;2023-11-21T05:33:01;19.45;;;10.85;;
27957;SDS011;15295;42.658;23.374;2023-11-21T05:35:46;32.90;;;12.70;;
27957;SDS011;15295;42.658;23.374;2023-11-21T05:38:13;30.55;;;14.43;;
27957;SDS011;15295;42.658;23.374;2023-11-21T05:40:39;32.55;;;14.88;;
27957;SDS011;15295;42.658;23.374;2023-11-21T05:43:10;25.80;;;13.43;;
27957;SDS011;15295;42.658;23.374;2023-11-21T05:45:38;27.88;;;12.38;;
27957;SDS011;15295;42.658;23.374;2023-11-21T05:50:41;17.15;;;9.00;;
27957;SDS011;15295;42.658;23.374;2023-11-21T05:55:37;29.30;;;12.77;;
27957;SDS011;15295;42.658;23.374;2023-11-21T05:58:04;24.27;;;13.85;;
27957;SDS011;15295;42.658;23.374;2023-11-21T06:00:29;27.40;;;15.25;;
27957;SDS011;15295;42.658;23.374;2023-11-21T06:02:56;32.28;;;14.95;;
27957;SDS011;15295;42.658;23.374;2023-11-21T06:05:25;33.58;;;14.68;;
27957;SDS011;15295;42.658;23.374;2023-11-21T06:08:05;31.00;;;16.23;;
27957;SDS011;15295;42.658;23.374;2023-11-21T06:10:34;34.67;;;16.17;;
27957;SDS011;15295;42.658;23.374;2023-11-21T06:12:59;39.17;;;17.55;;
27957;SDS011;15295;42.658;23.374;2023-11-21T06:15:25;37.15;;;17.85;;
27957;SDS011;15295;42.658;23.374;2023-11-21T06:17:51;34.28;;;18.13;;
27957;SDS011;15295;42.658;23.374;2023-11-21T06:20:25;35.60;;;17.60;;
27957;SDS011;15295;42.658;23.374;2023-11-21T06:22:58;36.60;;;18.58;;
27957;SDS011;15295;42.658;23.374;2023-11-21T06:25:28;44.38;;;19.38;;
27957;SDS011;15295;42.658;23.374;2023-11-21T06:27:58;38.92;;;18.52;;
27957;SDS011;15295;42.658;23.374;2023-11-21T06:30:26;42.20;;;20.38;;
27957;SDS011;15295;42.658;23.374;2023-11-21T06:33:00;42.47;;;20.67;;
27957;SDS011;15295;42.658;23.374;2023-11-21T06:35:26;42.75;;;21.08;;
27957;SDS011;15295;42.658;23.374;2023-11-21T06:37:55;41.50;;;20.70;;
27957;SDS011;15295;42.658;23.374;2023-11-21T06:40:25;48.28;;;20.48;;
27957;SDS011;15295;42.658;23.374;2023-11-21T06:42:51;45.53;;;21.67;;
27957;SDS011;15295;42.658;23.374;2023-11-21T06:45:19;45.17;;;21.73;;
27957;SDS011;15295;42.658;23.374;2023-11-21T06:47:45;41.85;;;21.33;;
27957;SDS011;15295;42.658;23.374;2023-11-21T06:50:11;41.72;;;19.50;;
27957;SDS011;15295;42.658;23.374;2023-11-21T06:52:37;39.97;;;18.70;;
27957;SDS011;15295;42.658;23.374;2023-11-21T06:55:06;42.17;;;20.02;;
27957;SDS011;15295;42.658;23.374;2023-11-21T06:57:36;43.70;;;18.90;;
27957;SDS011;15295;42.658;23.374;2023-11-21T07:00:03;43.10;;;18.52;;
27957;SDS011;15295;42.658;23.374;2023-11-21T07:02:34;31.30;;;16.80;;
27957;SDS011;15295;42.658;23.374;2023-11-21T07:04:59;35.15;;;17.98;;
27957;SDS011;15295;42.658;23.374;2023-11-21T07:07:25;41.65;;;18.63;;
27957;SDS011;15295;42.658;23.374;2023-11-21T07:09:56;44.22;;;18.63;;
27957;SDS011;15295;42.658;23.374;2023-11-21T07:12:28;32.35;;;17.73;;
27957;SDS011;15295;42.658;23.374;2023-11-21T07:14:54;33.17;;;17.13;;
27957;SDS011;15295;42.658;23.374;2023-11-21T07:17:23;36.22;;;19.45;;
27957;SDS011;15295;42.658;23.374;2023-11-21T07:19:49;36.38;;;18.58;;
27957;SDS011;15295;42.658;23.374;2023-11-21T07:27:38;35.28;;;17.27;;
27957;SDS011;15295;42.658;23.374;2023-11-21T07:30:20;42.22;;;18.75;;
27957;SDS011;15295;42.658;23.374;2023-11-21T07:32:58;40.95;;;17.23;;
27957;SDS011;15295;42.658;23.374;2023-11-21T07:44:29;19.25;;;10.95;;
27957;SDS011;15295;42.658;23.374;2023-11-21T07:46:55;24.02;;;12.85;;
27957;SDS011;15295;42.658;23.374;2023-11-21T07:49:23;37.03;;;15.60;;
27957;SDS011;15295;42.658;23.374;2023-11-21T07:51:51;38.03;;;19.23;;
27957;SDS011;15295;42.658;23.374;2023-11-21T07:54:17;34.10;;;18.60;;
27957;SDS011;15295;42.658;23.374;2023-11-21T07:56:43;37.90;;;20.83;;
27957;SDS011;15295;42.658;23.374;2023-11-21T07:59:08;31.58;;;18.42;;
27957;SDS011;15295;42.658;23.374;2023-11-21T08:01:44;38.13;;;20.50;;
27957;SDS011;15295;42.658;23.374;2023-11-21T08:04:10;58.72;;;33.22;;
27957;SDS011;15295;42.658;23.374;2023-11-21T08:06:36;66.68;;;35.50;;
27957;SDS011;15295;42.658;23.374;2023-11-21T08:09:01;56.67;;;32.25;;
27957;SDS011;15295;42.658;23.374;2023-11-21T08:11:29;44.50;;;23.80;;
27957;SDS011;15295;42.658;23.374;2023-11-21T08:13:56;33.42;;;15.93;;
27957;SDS011;15295;42.658;23.374;2023-11-21T08:16:22;50.50;;;23.92;;
27957;SDS011;15295;42.658;23.374;2023-11-21T08:18:49;52.95;;;22.23;;
27957;SDS011;15295;42.658;23.374;2023-11-21T08:21:25;40.05;;;17.48;;
27957;SDS011;15295;42.658;23.374;2023-11-21T08:23:53;30.98;;;18.05;;
27957;SDS011;15295;42.658;23.374;2023-11-21T08:26:20;34.00;;;17.60;;
27957;SDS011;15295;42.658;23.374;2023-11-21T08:28:47;40.00;;;18.45;;
27957;SDS011;15295;42.658;23.374;2023-11-21T08:31:28;31.10;;;17.33;;
27957;SDS011;15295;42.658;23.374;2023-11-21T08:33:54;81.68;;;49.22;;
27957;SDS011;15295;42.658;23.374;2023-11-21T08:36:23;40.38;;;23.45;;
27957;SDS011;15295;42.658;23.374;2023-11-21T08:38:49;29.85;;;17.95;;
27957;SDS011;15295;42.658;23.374;2023-11-21T08:41:17;33.53;;;16.50;;
27957;SDS011;15295;42.658;23.374;2023-11-21T08:43:47;26.08;;;16.88;;
27957;SDS011;15295;42.658;23.374;2023-11-21T08:46:45;29.25;;;15.20;;
27957;SDS011;15295;42.658;23.374;2023-11-21T08:49:12;33.13;;;18.38;;
27957;SDS011;15295;42.658;23.374;2023-11-21T08:51:38;43.50;;;17.20;;
27957;SDS011;15295;42.658;23.374;2023-11-21T08:54:04;32.55;;;16.83;;
27957;SDS011;15295;42.658;23.374;2023-11-21T08:56:33;33.55;;;16.80;;
27957;SDS011;15295;42.658;23.374;2023-11-21T08:58:59;39.53;;;17.92;;
27957;SDS011;15295;42.658;23.374;2023-11-21T09:01:42;32.70;;;17.98;;
27957;SDS011;15295;42.658;23.374;2023-11-21T09:04:07;46.47;;;18.20;;
27957;SDS011;15295;42.658;23.374;2023-11-21T09:06:33;38.55;;;19.48;;
27957;SDS011;15295;42.658;23.374;2023-11-21T09:08:58;38.38;;;18.60;;
27957;SDS011;15295;42.658;23.374;2023-11-21T09:11:24;40.80;;;18.63;;
27957;SDS011;15295;42.658;23.374;2023-11-21T09:13:52;31.75;;;18.45;;
27957;SDS011;15295;42.658;23.374;2023-11-21T09:18:46;30.48;;;17.15;;
27957;SDS011;15295;42.658;23.374;2023-11-21T09:21:12;31.33;;;17.30;;
27957;SDS011;15295;42.658;23.374;2023-11-21T09:26:50;34.10;;;16.75;;
27957;SDS011;15295;42.658;23.374;2023-11-21T09:29:16;37.05;;;16.98;;
27957;SDS011;15295;42.658;23.374;2023-11-21T09:31:41;33.42;;;17.63;;
27957;SDS011;15295;42.658;23.374;2023-11-21T09:37:03;29.17;;;17.33;;
27957;SDS011;15295;42.658;23.374;2023-11-21T09:39:33;36.55;;;17.40;;
27957;SDS011;15295;42.658;23.374;2023-11-21T09:42:04;41.95;;;17.73;;
27957;SDS011;15295;42.658;23.374;2023-11-21T09:44:36;34.97;;;18.30;;
27957;SDS011;15295;42.658;23.374;2023-11-21T09:47:27;36.60;;;19.40;;
27957;SDS011;15295;42.658;23.374;2023-11-21T09:50:02;38.97;;;18.77;;
27957;SDS011;15295;42.658;23.374;2023-11-21T09:55:42;33.65;;;18.60;;
27957;SDS011;15295;42.658;23.374;2023-11-21T09:58:09;37.08;;;19.50;;
27957;SDS011;15295;42.658;23.374;2023-11-21T10:00:40;39.00;;;18.70;;
27957;SDS011;15295;42.658;23.374;2023-11-21T10:03:18;40.42;;;20.08;;
27957;SDS011;15295;42.658;23.374;2023-11-21T10:05:44;39.50;;;20.33;;
27957;SDS011;15295;42.658;23.374;2023-11-21T10:08:13;34.63;;;19.42;;
27957;SDS011;15295;42.658;23.374;2023-11-21T10:10:43;41.05;;;18.83;;
27957;SDS011;15295;42.658;23.374;2023-11-21T10:16:14;41.53;;;19.40;;
27957;SDS011;15295;42.658;23.374;2023-11-21T10:21:17;32.67;;;16.70;;
27957;SDS011;15295;42.658;23.374;2023-11-21T10:23:45;34.70;;;19.58;;
27957;SDS011;15295;42.658;23.374;2023-11-21T10:26:12;35.83;;;16.23;;
27957;SDS011;15295;42.658;23.374;2023-11-21T10:46:49;32.78;;;18.42;;
27957;SDS011;15295;42.658;23.374;2023-11-21T10:49:26;32.95;;;16.15;;
27957;SDS011;15295;42.658;23.374;2023-11-21T10:51:54;32.53;;;15.00;;
27957;SDS011;15295;42.658;23.374;2023-11-21T10:57:02;32.70;;;17.23;;
27957;SDS011;15295;42.658;23.374;2023-11-21T10:59:31;49.88;;;29.33;;
27957;SDS011;15295;42.658;23.374;2023-11-21T11:01:59;29.80;;;14.90;;
27957;SDS011;15295;42.658;23.374;2023-11-21T11:04:43;49.22;;;30.05;;
27957;SDS011;15295;42.658;23.374;2023-11-21T11:07:10;35.38;;;18.40;;
27957;SDS011;15295;42.658;23.374;2023-11-21T11:09:42;36.03;;;19.00;;
27957;SDS011;15295;42.658;23.374;2023-11-21T11:12:10;30.20;;;14.30;;
27957;SDS011;15295;42.658;23.374;2023-11-21T11:14:44;25.17;;;14.65;;
27957;SDS011;15295;42.658;23.374;2023-11-21T11:17:10;27.80;;;13.20;;
27957;SDS011;15295;42.658;23.374;2023-11-21T11:19:37;27.92;;;13.25;;
27957;SDS011;15295;42.658;23.374;2023-11-21T11:22:10;26.48;;;13.32;;
27957;SDS011;15295;42.658;23.374;2023-11-21T11:25:14;27.60;;;12.57;;
27957;SDS011;15295;42.658;23.374;2023-11-21T11:28:07;23.80;;;14.20;;
27957;SDS011;15295;42.658;23.374;2023-11-21T11:35:46;29.35;;;14.77;;
27957;SDS011;15295;42.658;23.374;2023-11-21T11:38:14;27.08;;;15.50;;
27957;SDS011;15295;42.658;23.374;2023-11-21T11:40:41;25.83;;;16.40;;
27957;SDS011;15295;42.658;23.374;2023-11-21T11:43:09;29.70;;;15.45;;
27957;SDS011;15295;42.658;23.374;2023-11-21T11:45:36;51.25;;;26.50;;
27957;SDS011;15295;42.658;23.374;2023-11-21T11:48:06;37.58;;;18.77;;
27957;SDS011;15295;42.658;23.374;2023-11-21T11:50:32;36.28;;;17.65;;
27957;SDS011;15295;42.658;23.374;2023-11-21T11:53:13;35.35;;;17.52;;
27957;SDS011;15295;42.658;23.374;2023-11-21T11:55:40;31.77;;;17.55;;
27957;SDS011;15295;42.658;23.374;2023-11-21T11:58:06;35.83;;;19.48;;
27957;SDS011;15295;42.658;23.374;2023-11-21T12:03:00;38.03;;;19.67;;
27957;SDS011;15295;42.658;23.374;2023-11-21T12:05:33;46.72;;;33.55;;
27957;SDS011;15295;42.658;23.374;2023-11-21T12:08:07;41.72;;;22.17;;
27957;SDS011;15295;42.658;23.374;2023-11-21T12:10:37;37.20;;;20.40;;
27957;SDS011;15295;42.658;23.374;2023-11-21T12:13:08;34.75;;;20.75;;
27957;SDS011;15295;42.658;23.374;2023-11-21T12:15:35;33.08;;;17.77;;
27957;SDS011;15295;42.658;23.374;2023-11-21T12:18:01;38.13;;;21.88;;
27957;SDS011;15295;42.658;23.374;2023-11-21T12:20:28;53.30;;;31.23;;
27957;SDS011;15295;42.658;23.374;2023-11-21T12:22:56;42.10;;;23.80;;
27957;SDS011;15295;42.658;23.374;2023-11-21T12:25:27;39.38;;;20.85;;
27957;SDS011;15295;42.658;23.374;2023-11-21T12:28:02;44.60;;;21.60;;
27957;SDS011;15295;42.658;23.374;2023-11-21T12:30:29;46.85;;;22.52;;
27957;SDS011;15295;42.658;23.374;2023-11-21T12:32:57;40.05;;;21.50;;
27957;SDS011;15295;42.658;23.374;2023-11-21T12:35:28;44.42;;;24.23;;
27957;SDS011;15295;42.658;23.374;2023-11-21T12:37:58;44.22;;;25.15;;
27957;SDS011;15295;42.658;23.374;2023-11-21T12:40:24;50.72;;;28.30;;
27957;SDS011;15295;42.658;23.374;2023-11-21T12:42:51;49.00;;;26.90;;
27957;SDS011;15295;42.658;23.374;2023-11-21T12:47:50;53.63;;;28.48;;
27957;SDS011;15295;42.658;23.374;2023-11-21T12:50:20;52.10;;;28.48;;
27957;SDS011;15295;42.658;23.374;2023-11-21T12:52:49;52.92;;;28.70;;
27957;SDS011;15295;42.658;23.374;2023-11-21T12:55:31;49.30;;;29.33;;
27957;SDS011;15295;42.658;23.374;2023-11-21T12:57:57;52.28;;;27.42;;
27957;SDS011;15295;42.658;23.374;2023-11-21T13:00:34;44.92;;;26.65;;
27957;SDS011;15295;42.658;23.374;2023-11-21T13:03:05;49.08;;;26.75;;
27957;SDS011;15295;42.658;23.374;2023-11-21T13:05:35;50.15;;;26.30;;
27957;SDS011;15295;42.658;23.374;2023-11-21T13:08:05;54.35;;;27.58;;
27957;SDS011;15295;42.658;23.374;2023-11-21T13:10:36;47.20;;;27.77;;
27957;SDS011;15295;42.658;23.374;2023-11-21T13:13:06;50.38;;;27.85;;
27957;SDS011;15295;42.658;23.374;2023-11-21T13:15:41;56.30;;;28.45;;
27957;SDS011;15295;42.658;23.374;2023-11-21T13:18:14;50.78;;;28.63;;
27957;SDS011;15295;42.658;23.374;2023-11-21T13:20:41;52.55;;;28.80;;
27957;SDS011;15295;42.658;23.374;2023-11-21T13:23:08;48.08;;;27.70;;
27957;SDS011;15295;42.658;23.374;2023-11-21T13:25:41;72.18;;;42.42;;
27957;SDS011;15295;42.658;23.374;2023-11-21T13:28:07;63.53;;;31.75;;
27957;SDS011;15295;42.658;23.374;2023-11-21T13:33:09;59.95;;;32.33;;
27957;SDS011;15295;42.658;23.374;2023-11-21T13:35:37;53.75;;;27.88;;
27957;SDS011;15295;42.658;23.374;2023-11-21T13:38:14;46.13;;;26.08;;
27957;SDS011;15295;42.658;23.374;2023-11-21T13:40:46;58.92;;;26.88;;
27957;SDS011;15295;42.658;23.374;2023-11-21T13:43:14;46.35;;;26.73;;
27957;SDS011;15295;42.658;23.374;2023-11-21T13:45:43;45.90;;;27.48;;
27957;SDS011;15295;42.658;23.374;2023-11-21T13:48:10;49.92;;;28.38;;
27957;SDS011;15295;42.658;23.374;2023-11-21T13:50:39;53.28;;;30.30;;
27957;SDS011;15295;42.658;23.374;2023-11-21T13:55:47;56.25;;;29.58;;
27957;SDS011;15295;42.658;23.374;2023-11-21T13:58:15;50.95;;;29.08;;
27957;SDS011;15295;42.658;23.374;2023-11-21T14:00:47;49.47;;;29.55;;
27957;SDS011;15295;42.658;23.374;2023-11-21T14:03:14;53.63;;;28.20;;
27957;SDS011;15295;42.658;23.374;2023-11-21T14:05:45;51.92;;;29.17;;
27957;SDS011;15295;42.658;23.374;2023-11-21T14:08:22;51.08;;;30.02;;
27957;SDS011;15295;42.658;23.374;2023-11-21T14:10:57;54.60;;;29.27;;
27957;SDS011;15295;42.658;23.374;2023-11-21T14:13:26;53.38;;;29.67;;
27957;SDS011;15295;42.658;23.374;2023-11-21T14:15:53;56.45;;;29.38;;
27957;SDS011;15295;42.658;23.374;2023-11-21T14:18:27;50.92;;;27.40;;
27957;SDS011;15295;42.658;23.374;2023-11-21T14:21:02;61.80;;;36.50;;
27957;SDS011;15295;42.658;23.374;2023-11-21T14:23:28;61.10;;;33.70;;
27957;SDS011;15295;42.658;23.374;2023-11-21T14:25:57;54.55;;;29.58;;
27957;SDS011;15295;42.658;23.374;2023-11-21T14:28:43;55.70;;;29.70;;
27957;SDS011;15295;42.658;23.374;2023-11-21T14:31:09;58.95;;;30.23;;
27957;SDS011;15295;42.658;23.374;2023-11-21T14:33:52;60.85;;;31.40;;
27957;SDS011;15295;42.658;23.374;2023-11-21T14:36:18;60.15;;;30.02;;
27957;SDS011;15295;42.658;23.374;2023-11-21T14:38:45;48.08;;;28.67;;
27957;SDS011;15295;42.658;23.374;2023-11-21T14:41:21;64.38;;;30.17;;
27957;SDS011;15295;42.658;23.374;2023-11-21T14:44:01;50.63;;;27.50;;
27957;SDS011;15295;42.658;23.374;2023-11-21T14:49:39;55.97;;;27.70;;
27957;SDS011;15295;42.658;23.374;2023-11-21T14:52:17;53.63;;;30.10;;
27957;SDS011;15295;42.658;23.374;2023-11-21T14:55:08;50.55;;;29.80;;
27957;SDS011;15295;42.658;23.374;2023-11-21T14:57:48;65.75;;;30.55;;
27957;SDS011;15295;42.658;23.374;2023-11-21T15:00:20;59.13;;;30.40;;
27957;SDS011;15295;42.658;23.374;2023-11-21T15:03:03;63.53;;;32.53;;
27957;SDS011;15295;42.658;23.374;2023-11-21T15:05:30;65.22;;;33.22;;
27957;SDS011;15295;42.658;23.374;2023-11-21T15:08:00;60.58;;;30.85;;
27957;SDS011;15295;42.658;23.374;2023-11-21T15:10:46;63.92;;;31.75;;
27957;SDS011;15295;42.658;23.374;2023-11-21T15:13:22;68.93;;;32.72;;
27957;SDS011;15295;42.658;23.374;2023-11-21T15:15:51;61.50;;;32.10;;
27957;SDS011;15295;42.658;23.374;2023-11-21T15:21:08;71.28;;;30.48;;
27957;SDS011;15295;42.658;23.374;2023-11-21T15:23:37;74.15;;;30.58;;
27957;SDS011;15295;42.658;23.374;2023-11-21T15:28:37;66.05;;;33.58;;
27957;SDS011;15295;42.658;23.374;2023-11-21T15:31:03;74.57;;;31.00;;
27957;SDS011;15295;42.658;23.374;2023-11-21T15:33:29;60.58;;;30.55;;
27957;SDS011;15295;42.658;23.374;2023-11-21T15:35:55;57.05;;;30.90;;
27957;SDS011;15295;42.658;23.374;2023-11-21T15:38:21;63.33;;;30.38;;
27957;SDS011;15295;42.658;23.374;2023-11-21T15:40:47;58.60;;;32.45;;
27957;SDS011;15295;42.658;23.374;2023-11-21T15:43:14;61.75;;;29.92;;
27957;SDS011;15295;42.658;23.374;2023-11-21T15:45:39;61.28;;;28.60;;
27957;SDS011;15295;42.658;23.374;2023-11-21T15:48:15;57.13;;;30.73;;
27957;SDS011;15295;42.658;23.374;2023-11-21T15:50:56;74.63;;;34.83;;
27957;SDS011;15295;42.658;23.374;2023-11-21T15:53:22;78.05;;;36.90;;
27957;SDS011;15295;42.658;23.374;2023-11-21T15:55:48;78.30;;;36.97;;
27957;SDS011;15295;42.658;23.374;2023-11-21T16:01:09;88.72;;;40.75;;
27957;SDS011;15295;42.658;23.374;2023-11-21T16:03:36;86.82;;;43.63;;
27957;SDS011;15295;42.658;23.374;2023-11-21T16:06:03;78.95;;;39.47;;
27957;SDS011;15295;42.658;23.374;2023-11-21T16:08:30;77.32;;;40.70;;
27957;SDS011;15295;42.658;23.374;2023-11-21T16:10:57;78.57;;;41.47;;
27957;SDS011;15295;42.658;23.374;2023-11-21T16:13:25;77.20;;;42.15;;